Time;durP1;ratioP1;P1;durP2;ratioP2;P2;SDS_P1;SDS_P2;PMS_P1;PMS_P2;Temp;Humidity;BMP_temperature;BMP_pressure;BME280_temperature;BME280_humidity;BME280_pressure;Samples;Min_cycle;Max_cycle;Signal;HPM_P1;HPM_P2
2023/02/20 00:01:29;;;;;;;5.50;2.25;;;;;;;19.20;39.88;102516.53;5122685;27;20082;-68
2023/02/20 00:03:54;;;;;;;4.65;2.10;;;;;;;19.19;39.93;102508.72;5122463;27;20035;-68
2023/02/20 00:06:19;;;;;;;4.28;2.10;;;;;;;19.15;40.02;102509.81;5123228;27;20088;-68
2023/02/20 00:08:45;;;;;;;4.70;2.15;;;;;;;19.15;39.82;102508.03;5122711;27;20035;-68
2023/02/20 00:11:10;;;;;;;4.82;2.15;;;;;;;19.11;39.91;102516.25;5122956;27;20039;-68
2023/02/20 00:13:35;;;;;;;6.25;2.78;;;;;;;19.10;39.88;102510.09;5122511;27;20027;-68
2023/02/20 00:16:01;;;;;;;4.32;2.55;;;;;;;19.14;39.80;102521.34;5122833;27;20104;-68
2023/02/20 00:18:26;;;;;;;5.20;2.33;;;;;;;19.12;39.83;102521.44;5103866;28;20027;-67
2023/02/20 00:20:52;;;;;;;4.53;2.17;;;;;;;19.09;39.55;102503.13;5122555;27;20034;-67
2023/02/20 00:23:17;;;;;;;5.45;2.35;;;;;;;19.11;39.68;102500.38;5122455;27;20034;-68
2023/02/20 00:25:42;;;;;;;4.75;2.20;;;;;;;19.09;39.72;102496.97;5122449;27;20029;-68
2023/02/20 00:28:08;;;;;;;4.25;2.50;;;;;;;19.06;39.84;102497.16;5122388;27;20121;-68
2023/02/20 00:30:33;;;;;;;4.20;2.15;;;;;;;19.07;39.89;102498.84;5122513;27;20562;-70
2023/02/20 00:32:58;;;;;;;4.28;2.33;;;;;;;19.03;39.63;102480.53;5121785;27;20041;-69
2023/02/20 00:35:25;;;;;;;4.82;2.40;;;;;;;19.04;39.37;102478.72;5122270;27;20031;-69
2023/02/20 00:37:51;;;;;;;5.47;2.50;;;;;;;19.02;39.85;102473.53;5122445;27;20612;-68
2023/02/20 00:40:19;;;;;;;6.55;2.55;;;;;;;19.00;39.68;102458.75;5122419;27;20045;-69
2023/02/20 00:42:45;;;;;;;4.40;2.10;;;;;;;19.01;39.55;102458.66;5121959;27;20069;-69
2023/02/20 00:45:11;;;;;;;4.43;2.35;;;;;;;19.00;39.61;102453.47;5121995;27;20035;-68
2023/02/20 00:47:36;;;;;;;5.57;2.83;;;;;;;19.02;39.55;102454.22;5122248;27;20084;-68
2023/02/20 00:50:02;;;;;;;4.45;2.40;;;;;;;18.98;39.48;102458.84;5122132;27;20035;-69
2023/02/20 00:52:28;;;;;;;5.03;2.50;;;;;;;18.98;39.56;102444.78;5122156;27;20058;-69
2023/02/20 00:54:53;;;;;;;4.53;2.42;;;;;;;18.96;39.58;102436.06;5122062;27;20027;-68
2023/02/20 00:57:19;;;;;;;4.40;2.40;;;;;;;18.98;39.41;102437.69;5103516;28;20710;-68
2023/02/20 00:59:44;;;;;;;5.10;2.53;;;;;;;18.97;39.55;102435.97;5122001;27;20039;-67
2023/02/20 01:02:09;;;;;;;5.88;2.60;;;;;;;18.96;39.58;102439.59;5121752;27;20141;-69
2023/02/20 01:04:35;;;;;;;4.85;2.65;;;;;;;18.93;39.50;102425.69;5121849;27;20459;-69
2023/02/20 01:07:00;;;;;;;6.78;2.83;;;;;;;18.94;39.51;102430.88;5121773;27;20084;-69
2023/02/20 01:09:27;;;;;;;6.28;3.08;;;;;;;18.93;39.46;102429.19;5122194;27;20382;-69
2023/02/20 01:11:52;;;;;;;4.75;2.65;;;;;;;18.91;39.64;102425.78;5121715;27;20036;-68
2023/02/20 01:14:18;;;;;;;5.93;2.60;;;;;;;18.89;39.44;102422.38;5121688;27;20038;-70
2023/02/20 01:16:45;;;;;;;4.43;2.65;;;;;;;18.90;39.51;102426.75;5121548;28;20031;-68
2023/02/20 01:19:10;;;;;;;4.95;2.75;;;;;;;18.89;39.41;102432.94;5121588;27;20127;-68
2023/02/20 01:21:36;;;;;;;5.13;2.60;;;;;;;18.89;39.27;102440.03;5122184;27;20080;-68
2023/02/20 01:24:01;;;;;;;4.90;2.70;;;;;;;18.88;39.38;102446.25;5121796;27;20031;-68
2023/02/20 01:26:26;;;;;;;4.93;2.50;;;;;;;18.87;39.14;102442.78;5121722;28;20180;-68
2023/02/20 01:28:51;;;;;;;5.33;2.80;;;;;;;18.85;39.13;102442.88;5121495;27;20038;-68
2023/02/20 01:31:17;;;;;;;5.60;2.67;;;;;;;18.86;39.31;102435.78;5121783;27;20424;-69
2023/02/20 01:33:42;;;;;;;4.30;2.20;;;;;;;18.86;39.40;102438.41;5121378;28;20264;-69
2023/02/20 01:36:09;;;;;;;4.78;2.38;;;;;;;18.84;39.28;102433.22;5122360;28;20527;-68
2023/02/20 01:38:34;;;;;;;5.75;2.83;;;;;;;18.82;39.34;102436.88;5121794;28;20481;-68
2023/02/20 01:40:59;;;;;;;6.15;3.05;;;;;;;18.82;39.31;102434.25;5102812;28;20150;-67
2023/02/20 01:43:24;;;;;;;4.65;2.40;;;;;;;18.83;39.29;102422.72;5121237;28;20167;-67
2023/02/20 01:45:50;;;;;;;6.05;2.70;;;;;;;18.80;39.24;102429.06;5120320;27;20046;-68
2023/02/20 01:48:24;;;;;;;7.30;2.55;;;;;;;18.80;39.17;102425.53;5121290;27;20472;-68
2023/02/20 01:50:53;;;;;;;5.68;2.70;;;;;;;18.77;39.30;102423.94;5122259;27;20030;-68
2023/02/20 01:53:22;;;;;;;5.60;2.70;;;;;;;18.76;39.40;102416.13;5121655;28;20031;-68
2023/02/20 01:55:55;;;;;;;5.03;2.75;;;;;;;18.76;39.20;102405.56;5121427;28;20031;-66
2023/02/20 01:58:25;;;;;;;5.57;2.70;;;;;;;18.75;39.06;102396.75;5121560;28;20347;-68
2023/02/20 02:00:51;;;;;;;7.20;2.42;;;;;;;18.76;39.30;102387.06;5121248;27;20080;-68
2023/02/20 02:03:25;;;;;;;4.93;2.33;;;;;;;18.77;39.25;102394.91;5121421;27;20031;-68
2023/02/20 02:05:59;;;;;;;6.85;2.80;;;;;;;18.76;39.27;102377.34;5121897;28;20559;-68
2023/02/20 02:08:26;;;;;;;7.45;2.65;;;;;;;18.78;39.15;102377.25;5121212;27;20039;-68
2023/02/20 02:10:58;;;;;;;5.03;2.60;;;;;;;18.75;39.25;102366.88;5121405;27;20535;-69
2023/02/20 02:13:23;;;;;;;5.95;2.90;;;;;;;18.76;39.16;102366.78;5120978;27;20023;-68
2023/02/20 02:15:59;;;;;;;6.72;2.90;;;;;;;18.75;39.13;102354.50;5121392;27;20047;-68
2023/02/20 02:18:48;;;;;;;5.32;2.55;;;;;;;18.74;39.35;102347.53;5123948;27;20027;-69
2023/02/20 02:21:41;;;;;;;8.63;3.03;;;;;;;18.71;39.05;102334.50;5124105;27;20054;-68
2023/02/20 02:24:16;;;;;;;6.50;2.63;;;;;;;18.72;39.08;102328.28;5124762;27;20031;-69
2023/02/20 02:27:02;;;;;;;5.07;2.83;;;;;;;18.72;39.14;102336.19;5124748;27;20534;-69
2023/02/20 02:29:49;;;;;;;5.65;2.70;;;;;;;18.69;39.06;102331.09;5125168;27;20034;-69
2023/02/20 02:32:40;;;;;;;6.07;3.10;;;;;;;18.70;39.09;102348.66;5124999;27;20110;-69
2023/02/20 02:35:37;;;;;;;5.00;2.80;;;;;;;18.70;39.02;102350.44;5113010;27;20107;-69
2023/02/20 02:38:21;;;;;;;5.60;2.95;;;;;;;18.66;39.19;102334.78;5124497;27;20115;-68
2023/02/20 02:40:56;;;;;;;5.28;3.13;;;;;;;18.64;39.23;102323.47;5124570;27;20091;-69
2023/02/20 02:43:48;;;;;;;6.85;3.38;;;;;;;18.64;39.06;102320.84;5124503;27;20035;-68
2023/02/20 02:46:25;;;;;;;7.15;3.15;;;;;;;18.64;38.92;102322.59;5124282;27;20085;-67
2023/02/20 02:48:57;;;;;;;7.07;3.53;;;;;;;18.61;39.13;102321.03;5124429;27;20038;-68
2023/02/20 02:51:30;;;;;;;6.55;2.92;;;;;;;18.61;39.07;102318.38;5124226;27;20035;-68
2023/02/20 02:54:14;;;;;;;5.57;3.05;;;;;;;18.60;38.90;102310.56;5124686;27;20041;-69
2023/02/20 02:56:44;;;;;;;8.48;3.33;;;;;;;18.58;38.99;102310.66;5124206;27;20440;-69
2023/02/20 02:59:14;;;;;;;8.10;3.63;;;;;;;18.60;39.22;102310.56;5124303;27;20043;-68
2023/02/20 03:01:44;;;;;;;7.55;3.75;;;;;;;18.59;39.14;102300.91;5124001;27;20193;-69
2023/02/20 03:04:11;;;;;;;6.40;3.33;;;;;;;18.56;39.01;102298.47;5123869;27;20076;-68
2023/02/20 03:06:41;;;;;;;9.35;3.80;;;;;;;18.58;39.27;102299.22;5124139;27;20031;-68
2023/02/20 03:09:29;;;;;;;6.90;3.80;;;;;;;18.56;39.13;102301.09;5124173;27;20034;-68
2023/02/20 03:11:57;;;;;;;7.03;3.60;;;;;;;18.57;39.14;102295.72;5124173;27;20041;-68
2023/02/20 03:17:35;;;;;;;7.15;4.15;;;;;;;18.55;39.03;102292.34;5124479;27;20034;-67
2023/02/20 03:20:15;;;;;;;6.47;3.72;;;;;;;18.55;39.41;102283.56;5125787;27;20031;-67
2023/02/20 03:22:50;;;;;;;6.72;3.42;;;;;;;18.53;39.40;102282.81;5124426;27;20143;-67
2023/02/20 03:25:30;;;;;;;6.70;3.58;;;;;;;18.53;39.41;102291.56;5124189;27;20102;-69
2023/02/20 03:27:59;;;;;;;6.72;3.60;;;;;;;18.51;39.35;102285.53;5123378;27;20034;-68
2023/02/20 03:30:36;;;;;;;5.85;3.60;;;;;;;18.52;39.53;102284.59;5122735;27;20023;-68
2023/02/20 03:44:15;;;;;;;7.40;3.80;;;;;;;18.51;39.47;102293.47;5123539;27;20069;-69
2023/02/20 03:46:44;;;;;;;6.43;3.53;;;;;;;18.50;39.61;102289.13;5123220;27;20069;-67
2023/02/20 03:49:18;;;;;;;6.90;3.70;;;;;;;18.47;39.55;102292.81;5123143;27;20119;-67
2023/02/20 03:51:44;;;;;;;6.32;3.30;;;;;;;18.49;39.41;102290.91;5123241;27;20506;-68
2023/02/20 03:54:15;;;;;;;6.10;3.45;;;;;;;18.46;39.47;102280.53;5123111;27;20043;-68
2023/02/20 03:56:44;;;;;;;6.43;3.60;;;;;;;18.47;39.33;102282.25;5123448;27;20079;-69
2023/02/20 04:00:01;;;;;;;5.18;3.28;;;;;;;18.47;39.41;102279.59;5122998;27;20111;-68
2023/02/20 04:02:33;;;;;;;7.60;3.50;;;;;;;18.45;39.35;102281.50;5102693;27;20479;-69
2023/02/20 04:05:04;;;;;;;8.13;3.63;;;;;;;18.45;39.41;102268.28;5123147;27;20079;-69
2023/02/20 04:07:35;;;;;;;7.03;3.75;;;;;;;18.46;39.45;102277.88;5122909;27;20035;-70
2023/02/20 04:10:05;;;;;;;6.05;3.55;;;;;;;18.44;39.61;102273.66;5122738;27;20252;-69
2023/02/20 04:12:37;;;;;;;5.35;3.10;;;;;;;18.43;39.63;102278.06;5122825;27;20031;-69
2023/02/20 04:15:05;;;;;;;8.02;3.78;;;;;;;18.44;39.40;102282.41;5103150;27;20134;-68
2023/02/20 04:17:38;;;;;;;6.18;3.50;;;;;;;18.43;39.51;102283.34;5122938;27;20497;-68
2023/02/20 04:20:03;;;;;;;6.80;3.40;;;;;;;18.46;39.36;102295.53;5122732;27;20130;-68
2023/02/20 04:22:36;;;;;;;7.45;3.67;;;;;;;18.42;39.55;102286.09;5122996;27;20094;-67
2023/02/20 04:25:14;;;;;;;5.38;3.15;;;;;;;18.45;39.74;102294.69;5122405;27;20035;-68
2023/02/20 04:27:39;;;;;;;6.97;3.10;;;;;;;18.44;39.76;102289.50;5122894;27;20390;-69
2023/02/20 04:30:05;;;;;;;5.65;2.83;;;;;;;18.44;39.37;102289.50;5122324;27;20031;-68
2023/02/20 04:32:30;;;;;;;6.45;3.50;;;;;;;18.41;39.51;102289.69;5122358;27;20398;-68
2023/02/20 04:34:56;;;;;;;7.40;3.20;;;;;;;18.41;39.50;102289.69;5122372;27;20070;-68
2023/02/20 04:37:22;;;;;;;6.20;3.13;;;;;;;18.44;39.53;102294.78;5122359;27;20067;-68
2023/02/20 04:39:47;;;;;;;7.90;3.25;;;;;;;18.42;39.62;102292.22;5120575;27;20066;-68
2023/02/20 04:42:13;;;;;;;6.90;3.50;;;;;;;18.41;39.44;102297.59;5120905;27;20067;-68
2023/02/20 04:44:38;;;;;;;6.25;3.05;;;;;;;18.39;39.47;102295.06;5122122;27;20038;-69
2023/02/20 04:47:12;;;;;;;6.55;3.13;;;;;;;18.40;39.59;102304.66;5122187;27;20077;-69
2023/02/20 04:49:37;;;;;;;8.18;3.22;;;;;;;18.38;39.57;102301.25;5122141;27;20034;-70
2023/02/20 04:52:02;;;;;;;6.72;3.17;;;;;;;18.38;39.51;102293.34;5103402;27;20027;-69
2023/02/20 04:54:28;;;;;;;5.53;3.00;;;;;;;18.39;39.66;102307.38;5121760;27;20126;-68
2023/02/20 04:56:53;;;;;;;6.65;3.35;;;;;;;18.39;39.81;102300.34;5121830;27;20030;-68
2023/02/20 04:59:19;;;;;;;7.03;3.00;;;;;;;18.39;39.73;102302.09;5122077;27;20035;-68
2023/02/20 05:01:47;;;;;;;6.25;2.63;;;;;;;18.37;39.64;102294.28;5121732;27;20038;-69
2023/02/20 05:04:15;;;;;;;8.65;3.45;;;;;;;18.38;39.70;102303.91;5121832;27;20035;-67
2023/02/20 05:06:43;;;;;;;6.50;2.83;;;;;;;18.37;39.75;102304.00;5103509;27;20023;-68
2023/02/20 05:09:09;;;;;;;6.57;2.92;;;;;;;18.37;39.83;102298.72;5121898;27;20694;-69
2023/02/20 05:11:36;;;;;;;5.90;2.90;;;;;;;18.34;39.83;102294.47;5121705;27;20034;-68
2023/02/20 05:14:01;;;;;;;6.45;2.80;;;;;;;18.34;39.72;102290.97;5122040;28;20031;-69
2023/02/20 05:16:27;;;;;;;8.32;3.40;;;;;;;18.36;39.60;102303.16;5121761;28;20051;-69
2023/02/20 05:18:52;;;;;;;6.60;2.95;;;;;;;18.34;39.77;102298.88;5121672;27;20076;-69
2023/02/20 05:24:01;;;;;;;7.05;3.22;;;;;;;18.33;39.79;102298.06;5121717;27;20041;-67
2023/02/20 05:26:27;;;;;;;6.95;3.38;;;;;;;18.36;39.91;102303.16;5122084;28;20043;-69
2023/02/20 05:28:52;;;;;;;6.85;3.30;;;;;;;18.37;39.96;102304.00;5121967;27;20045;-68
2023/02/20 05:31:17;;;;;;;7.35;3.33;;;;;;;18.32;39.88;102301.63;5121539;28;20035;-67
2023/02/20 05:33:42;;;;;;;6.00;3.13;;;;;;;18.33;39.75;102300.69;5121558;28;20154;-68
2023/02/20 05:36:08;;;;;;;6.53;3.28;;;;;;;18.35;39.71;102298.81;5121686;28;20127;-68
2023/02/20 05:38:33;;;;;;;8.07;3.80;;;;;;;18.34;39.82;102305.03;5121825;27;20138;-68
2023/02/20 05:40:59;;;;;;;7.55;3.58;;;;;;;18.32;39.63;102306.91;5121703;28;20035;-68
2023/02/20 05:43:24;;;;;;;7.78;3.53;;;;;;;18.35;39.96;102306.72;5121461;28;20072;-68
2023/02/20 05:45:49;;;;;;;8.98;3.70;;;;;;;18.35;39.63;102311.16;5120358;28;20031;-69
2023/02/20 05:48:14;;;;;;;7.05;3.72;;;;;;;18.33;39.68;102310.41;5121069;28;20041;-68
2023/02/20 05:50:40;;;;;;;8.38;4.60;;;;;;;18.33;39.91;102305.97;5121484;28;20146;-68
2023/02/20 05:53:06;;;;;;;9.40;4.70;;;;;;;18.29;39.98;102291.25;5123703;27;20031;-68
2023/02/20 05:55:31;;;;;;;6.50;3.75;;;;;;;18.25;40.13;102287.09;5125699;27;20027;-69
2023/02/20 05:57:57;;;;;;;5.85;3.25;;;;;;;18.26;40.26;102288.78;5125696;27;20030;-67
2023/02/20 06:00:22;;;;;;;7.57;4.03;;;;;;;18.27;40.61;102303.69;5125311;27;20027;-69
2023/02/20 06:02:48;;;;;;;5.70;3.03;;;;;;;18.29;40.69;102302.66;5125100;27;20437;-69
2023/02/20 06:05:14;;;;;;;7.68;3.10;;;;;;;18.28;40.92;102300.13;5125262;27;20031;-68
2023/02/20 06:07:42;;;;;;;5.50;2.85;;;;;;;18.30;40.92;102303.50;5125069;27;20050;-69
2023/02/20 06:10:08;;;;;;;4.82;2.97;;;;;;;18.35;40.99;102312.00;5125374;27;20031;-68
2023/02/20 06:12:33;;;;;;;5.25;2.90;;;;;;;18.38;41.04;102317.09;5125418;27;20023;-69
2023/02/20 06:14:58;;;;;;;5.18;2.90;;;;;;;18.43;40.59;102304.47;5124816;27;20047;-68
2023/02/20 06:17:24;;;;;;;4.78;2.90;;;;;;;18.43;40.50;102299.19;5125004;27;20539;-69
2023/02/20 06:19:49;;;;;;;6.38;3.00;;;;;;;18.47;40.58;102307.81;5124892;27;20114;-67
2023/02/20 06:22:16;;;;;;;7.07;2.97;;;;;;;18.52;40.62;102313.66;5125055;27;20471;-68
2023/02/20 06:24:45;;;;;;;6.63;2.92;;;;;;;18.54;40.67;102309.13;5124762;27;20073;-67
2023/02/20 06:27:10;;;;;;;7.35;3.13;;;;;;;18.55;40.65;102308.19;5124620;27;20042;-67
2023/02/20 06:29:35;;;;;;;6.35;3.08;;;;;;;18.61;40.41;102315.75;5125068;27;20035;-68
2023/02/20 06:32:00;;;;;;;6.13;2.83;;;;;;;18.56;40.53;102307.22;5124568;27;20027;-68
2023/02/20 06:34:30;;;;;;;6.35;3.38;;;;;;;18.63;40.62;102311.22;5124958;27;20108;-68
2023/02/20 06:36:55;;;;;;;6.80;3.28;;;;;;;18.66;40.48;102308.38;5124737;27;20072;-68
2023/02/20 06:39:20;;;;;;;6.72;3.65;;;;;;;18.66;40.50;102308.38;5124510;27;21064;-69
2023/02/20 06:41:46;;;;;;;5.95;3.20;;;;;;;18.68;40.53;102303.00;5124725;27;20060;-69
2023/02/20 06:44:11;;;;;;;7.60;3.53;;;;;;;18.72;40.41;102303.66;5124565;27;20027;-67
2023/02/20 06:46:36;;;;;;;5.90;3.00;;;;;;;18.71;40.43;102299.31;5124452;27;20274;-68
2023/02/20 06:49:02;;;;;;;5.47;3.15;;;;;;;18.71;40.32;102301.94;5124552;27;20516;-68
2023/02/20 06:51:30;;;;;;;5.93;3.67;;;;;;;18.73;40.18;102294.81;5124494;27;20034;-68
2023/02/20 06:53:56;;;;;;;7.47;3.78;;;;;;;18.76;40.19;102306.03;5124099;27;20395;-68
2023/02/20 06:56:25;;;;;;;7.82;3.75;;;;;;;18.76;40.33;102305.19;5124387;27;20035;-68
2023/02/20 06:58:52;;;;;;;5.82;3.53;;;;;;;18.79;40.35;102311.13;5124297;27;20027;-68
2023/02/20 07:01:19;;;;;;;6.72;3.30;;;;;;;18.80;40.21;102317.25;5124194;27;20072;-68
2023/02/20 07:03:47;;;;;;;5.45;3.42;;;;;;;18.78;40.15;102308.56;5123602;27;20026;-68
2023/02/20 07:06:13;;;;;;;6.78;3.45;;;;;;;18.82;40.45;102320.66;5123848;27;20034;-68
2023/02/20 07:08:38;;;;;;;5.50;3.33;;;;;;;18.80;40.18;102311.97;5124203;27;20034;-68
2023/02/20 07:11:03;;;;;;;7.30;3.25;;;;;;;18.82;40.32;102315.38;5123955;27;20031;-66
2023/02/20 07:13:29;;;;;;;5.18;3.38;;;;;;;18.79;40.25;102311.13;5124704;27;20038;-68
2023/02/20 07:15:54;;;;;;;6.85;3.65;;;;;;;18.84;40.18;102319.63;5123819;27;20051;-68
2023/02/20 07:18:22;;;;;;;5.55;3.63;;;;;;;18.82;40.26;102316.22;5124234;27;20866;-67
2023/02/20 07:20:48;;;;;;;7.38;3.97;;;;;;;18.85;40.40;102318.72;5105481;27;20042;-68
2023/02/20 07:23:13;;;;;;;7.38;3.67;;;;;;;18.84;39.96;102319.63;5124040;27;20168;-66
2023/02/20 07:25:39;;;;;;;6.22;3.65;;;;;;;18.83;40.15;102320.56;5124018;27;20126;-67
2023/02/20 07:28:07;;;;;;;6.07;3.60;;;;;;;18.84;40.08;102322.28;5123573;27;20034;-68
2023/02/20 07:30:32;;;;;;;6.32;3.88;;;;;;;18.84;40.17;102318.81;5123668;27;20267;-70
2023/02/20 07:32:57;;;;;;;8.00;4.47;;;;;;;18.84;40.05;102317.00;5123979;27;20062;-68
2023/02/20 07:35:23;;;;;;;9.07;4.60;;;;;;;18.86;40.10;102308.97;5123556;27;20121;-67
2023/02/20 07:37:48;;;;;;;7.15;4.28;;;;;;;18.87;40.14;102312.47;5123677;27;20259;-67
2023/02/20 07:40:13;;;;;;;7.38;4.60;;;;;;;18.88;40.16;102309.72;5123721;27;20371;-67
2023/02/20 07:42:38;;;;;;;6.28;3.97;;;;;;;18.86;40.33;102301.06;5123948;27;20035;-67
2023/02/20 07:45:04;;;;;;;8.83;4.53;;;;;;;18.85;40.25;102310.78;5123492;27;20031;-68
2023/02/20 07:47:29;;;;;;;7.35;4.32;;;;;;;18.85;40.38;102309.94;5123485;27;20266;-67
2023/02/20 07:49:54;;;;;;;6.77;4.60;;;;;;;18.84;40.15;102298.50;5123416;27;20196;-68
2023/02/20 07:52:20;;;;;;;6.75;4.07;;;;;;;18.84;40.33;102303.78;5123421;27;20271;-67
2023/02/20 07:54:45;;;;;;;7.22;4.50;;;;;;;18.84;40.17;102303.78;5123775;27;20548;-68
2023/02/20 07:57:10;;;;;;;7.43;4.40;;;;;;;18.84;40.36;102305.59;5123624;27;21397;-68
2023/02/20 07:59:35;;;;;;;7.05;3.90;;;;;;;18.79;40.53;102297.91;5122930;27;20031;-67
2023/02/20 08:02:01;;;;;;;6.40;3.93;;;;;;;18.85;40.41;102321.34;5122986;27;20035;-67
2023/02/20 08:04:26;;;;;;;8.90;4.32;;;;;;;18.83;40.42;102307.38;5123038;27;20271;-68
2023/02/20 08:06:52;;;;;;;5.73;3.80;;;;;;;18.84;40.43;102309.06;5123221;27;20042;-68
2023/02/20 08:09:18;;;;;;;6.90;3.95;;;;;;;18.84;40.64;102308.25;5122458;27;20275;-69
2023/02/20 08:11:43;;;;;;;7.53;3.83;;;;;;;18.83;40.53;102317.94;5123440;27;20039;-67
2023/02/20 08:14:09;;;;;;;6.50;4.15;;;;;;;18.80;40.50;102302.28;5122617;27;20039;-68
2023/02/20 08:16:34;;;;;;;7.43;4.20;;;;;;;18.80;40.73;102301.41;5122304;27;20043;-67
2023/02/20 08:18:59;;;;;;;8.57;3.80;;;;;;;18.84;41.04;102316.16;5122460;27;20442;-67
2023/02/20 08:21:25;;;;;;;6.05;4.25;;;;;;;18.85;40.99;102305.50;5122724;27;20122;-65
2023/02/20 08:23:51;;;;;;;5.95;4.07;;;;;;;18.87;40.83;102315.97;5103953;27;20071;-67
2023/02/20 08:26:17;;;;;;;8.75;3.72;;;;;;;18.85;40.92;102315.22;5122848;27;20090;-68
2023/02/20 08:28:42;;;;;;;7.97;4.05;;;;;;;18.88;41.09;102309.72;5122251;27;20027;-68
2023/02/20 08:31:08;;;;;;;8.05;4.22;;;;;;;18.85;41.27;102297.59;5122524;27;20116;-68
2023/02/20 08:33:33;;;;;;;7.97;3.95;;;;;;;18.86;41.59;102301.06;5122568;27;20368;-69
2023/02/20 08:35:58;;;;;;;6.10;3.88;;;;;;;18.90;41.34;102305.22;5122268;27;20502;-67
2023/02/20 08:38:32;;;;;;;8.20;4.13;;;;;;;18.91;41.51;102309.53;5122214;27;20031;-68
2023/02/20 08:40:58;;;;;;;6.32;3.78;;;;;;;18.90;41.82;102302.59;5122727;27;20498;-67
2023/02/20 08:43:24;;;;;;;7.47;4.68;;;;;;;18.91;41.61;102300.78;5122265;27;20071;-67
2023/02/20 08:45:49;;;;;;;6.88;4.03;;;;;;;18.94;41.77;102309.34;5122276;27;20042;-67
2023/02/20 08:48:14;;;;;;;7.45;4.00;;;;;;;18.96;41.89;102298.69;5122173;27;20031;-66
2023/02/20 08:50:40;;;;;;;7.20;3.90;;;;;;;18.95;41.79;102304.94;5122288;27;20126;-68
2023/02/20 08:53:05;;;;;;;7.30;3.42;;;;;;;18.97;41.88;102308.31;5122458;27;20138;-66
2023/02/20 08:55:30;;;;;;;6.32;3.67;;;;;;;18.96;41.74;102303.97;5121983;27;20035;-67
2023/02/20 08:57:56;;;;;;;6.15;3.90;;;;;;;18.97;41.87;102303.88;5122185;27;20042;-68
2023/02/20 09:00:21;;;;;;;6.95;3.97;;;;;;;18.97;41.81;102306.53;5121922;27;20062;-68
2023/02/20 09:02:46;;;;;;;6.57;4.10;;;;;;;18.97;41.66;102303.03;5121957;27;20031;-66
2023/02/20 09:05:12;;;;;;;8.18;4.22;;;;;;;18.99;41.75;102307.31;5121818;27;21044;-70
2023/02/20 09:07:38;;;;;;;6.88;3.67;;;;;;;18.99;41.75;102309.94;5122026;27;20039;-69
2023/02/20 09:10:03;;;;;;;7.83;4.97;;;;;;;18.97;41.85;102310.97;5121981;27;20096;-66
2023/02/20 09:12:29;;;;;;;6.82;4.30;;;;;;;18.99;41.75;102315.22;5122068;27;20259;-70
2023/02/20 09:14:55;;;;;;;6.78;3.90;;;;;;;18.99;41.65;102312.59;5121666;28;20955;-69
2023/02/20 09:17:20;;;;;;;5.90;3.60;;;;;;;18.99;41.59;102317.00;5121185;28;20072;-69
2023/02/20 09:19:46;;;;;;;6.90;4.20;;;;;;;18.99;41.67;102311.72;5121357;28;20027;-68
2023/02/20 09:22:11;;;;;;;7.90;3.95;;;;;;;19.00;41.53;102302.84;5121803;27;20298;-67
2023/02/20 09:24:36;;;;;;;7.10;4.20;;;;;;;19.04;41.50;102309.63;5121717;28;20023;-68
2023/02/20 09:27:05;;;;;;;7.78;4.50;;;;;;;19.03;41.44;102308.78;5122502;27;20826;-68
2023/02/20 09:29:30;;;;;;;6.88;4.20;;;;;;;19.00;41.23;102302.84;5126117;27;20118;-68
2023/02/20 09:31:55;;;;;;;7.28;4.30;;;;;;;19.04;41.48;102304.34;5125728;27;20514;-70
2023/02/20 09:34:21;;;;;;;7.90;4.32;;;;;;;19.03;41.14;102313.25;5125728;27;20331;-70
2023/02/20 09:36:46;;;;;;;8.82;4.43;;;;;;;19.01;41.58;102300.13;5125491;27;20039;-69
2023/02/20 09:39:16;;;;;;;6.53;4.63;;;;;;;19.02;41.55;102287.75;5125831;27;20038;-67
2023/02/20 09:42:12;;;;;;;11.70;4.45;;;;;;;19.00;41.46;102308.97;5125776;27;20023;-69
2023/02/20 09:44:56;;;;;;;6.28;4.05;;;;;;;19.05;41.60;102297.28;5125839;27;20038;-69
2023/02/20 09:47:53;;;;;;;7.53;4.88;;;;;;;19.03;41.36;102289.47;5125430;27;20019;-68
2023/02/20 09:50:46;;;;;;;7.28;4.50;;;;;;;19.02;41.30;102295.69;5125835;27;20039;-68
2023/02/20 09:53:20;;;;;;;8.10;4.75;;;;;;;19.03;41.45;102294.75;5116707;27;20039;-68
2023/02/20 09:55:46;;;;;;;10.03;5.20;;;;;;;19.02;41.15;102291.22;5125245;27;20023;-68
2023/02/20 09:58:20;;;;;;;8.13;4.68;;;;;;;19.01;41.24;102284.28;5125165;27;20275;-68
2023/02/20 10:00:46;;;;;;;8.88;4.68;;;;;;;19.02;41.34;102272.72;5125794;27;20467;-68
2023/02/20 10:03:22;;;;;;;6.13;4.15;;;;;;;18.99;41.36;102266.81;5125529;27;20395;-68
2023/02/20 10:05:49;;;;;;;7.13;4.10;;;;;;;19.02;41.25;102270.09;5125459;27;20035;-67
2023/02/20 10:08:18;;;;;;;9.32;4.40;;;;;;;18.96;41.34;102262.56;5125503;27;20035;-66
2023/02/20 10:10:44;;;;;;;8.95;4.43;;;;;;;19.05;41.36;102270.88;5121887;27;20406;-66
2023/02/20 10:13:26;;;;;;;7.32;4.75;;;;;;;19.07;41.29;102280.38;5124748;27;20039;-66
2023/02/20 10:16:09;;;;;;;7.20;4.43;;;;;;;19.05;41.19;102276.16;5124529;27;20074;-67
2023/02/20 10:19:16;;;;;;;6.50;4.05;;;;;;;19.09;41.25;102281.16;5124443;27;20039;-68
2023/02/20 10:22:05;;;;;;;10.02;4.70;;;;;;;19.08;41.31;102291.81;5040918;28;20106;-67
2023/02/20 10:24:47;;;;;;;8.65;4.50;;;;;;;19.12;41.42;102291.53;5040337;28;20040;-67
2023/02/20 10:27:41;;;;;;;9.48;4.53;;;;;;;19.15;41.42;102295.75;5103500;27;20043;-66
2023/02/20 10:30:11;;;;;;;6.47;3.80;;;;;;;19.16;41.52;102286.91;5124479;27;20031;-66
2023/02/20 10:32:46;;;;;;;7.25;4.03;;;;;;;19.19;41.56;102287.53;5125159;27;20033;-67
2023/02/20 10:35:22;;;;;;;9.70;4.45;;;;;;;19.21;41.35;102290.94;5124140;27;20035;-67
2023/02/20 10:37:54;;;;;;;8.02;4.20;;;;;;;19.15;41.44;102296.63;5123526;27;20080;-69
2023/02/20 10:40:24;;;;;;;6.65;3.88;;;;;;;19.15;41.65;102303.69;5124314;27;20023;-68
2023/02/20 10:42:55;;;;;;;8.18;4.10;;;;;;;19.11;41.91;102305.69;5124275;27;20586;-68
2023/02/20 10:45:30;;;;;;;7.32;3.90;;;;;;;19.13;41.76;102310.88;5123667;27;20031;-67
2023/02/20 10:48:07;;;;;;;8.10;4.35;;;;;;;19.12;41.88;102307.38;5124175;27;20027;-68
2023/02/20 10:50:39;;;;;;;7.10;4.10;;;;;;;19.17;41.82;102318.50;5124028;27;20031;-67
2023/02/20 10:53:27;;;;;;;6.10;4.00;;;;;;;19.16;41.85;102292.19;5123799;27;20031;-66
2023/02/20 10:55:53;;;;;;;7.85;4.18;;;;;;;19.19;41.50;102305.19;5123973;27;20035;-68
2023/02/20 10:58:30;;;;;;;7.47;4.13;;;;;;;19.17;41.57;102288.59;5122576;27;20177;-66
2023/02/20 11:01:01;;;;;;;8.70;4.32;;;;;;;19.14;41.69;102275.59;5123245;27;20067;-68
2023/02/20 11:03:39;;;;;;;11.93;4.40;;;;;;;19.10;41.69;102285.47;5123658;27;20035;-69
2023/02/20 11:06:08;;;;;;;9.35;4.15;;;;;;;19.12;41.69;102296.81;5104681;27;20128;-68
2023/02/20 11:08:33;;;;;;;7.45;4.35;;;;;;;19.11;41.77;102288.97;5123768;27;20038;-67
2023/02/20 11:11:10;;;;;;;7.47;4.22;;;;;;;19.13;41.73;102295.84;5123470;27;20034;-68
2023/02/20 11:13:36;;;;;;;7.47;4.35;;;;;;;19.14;41.77;102302.84;5123394;27;20132;-69
2023/02/20 11:16:01;;;;;;;7.33;4.77;;;;;;;19.13;41.72;102300.28;5104713;27;20201;-69
2023/02/20 11:18:34;;;;;;;8.52;5.10;;;;;;;19.11;41.79;102299.56;5122855;27;20263;-70
2023/02/20 11:21:00;;;;;;;7.82;4.85;;;;;;;19.05;41.71;102279.63;5119886;27;20035;-69
2023/02/20 11:23:38;;;;;;;8.65;4.57;;;;;;;19.13;41.78;102295.00;5122788;27;20892;-71
2023/02/20 11:26:31;;;;;;;9.35;4.78;;;;;;;19.13;41.57;102293.22;5123063;27;20383;-69
2023/02/20 11:29:01;;;;;;;7.20;4.93;;;;;;;19.17;41.43;102288.59;5123161;27;20019;-67
2023/02/20 11:31:29;;;;;;;10.63;5.25;;;;;;;19.19;41.56;102281.41;5123358;27;20421;-68
2023/02/20 11:33:55;;;;;;;9.13;4.82;;;;;;;19.16;41.88;102284.25;5123106;27;20126;-69
2023/02/20 11:36:24;;;;;;;11.68;5.32;;;;;;;19.15;41.66;102296.63;5123601;27;20031;-70
2023/02/20 11:39:00;;;;;;;10.52;5.43;;;;;;;19.13;41.71;102292.38;5123677;27;20037;-69
2023/02/20 11:41:34;;;;;;;10.15;5.85;;;;;;;19.14;41.94;102286.16;5123180;27;20035;-67
2023/02/20 11:44:13;;;;;;;8.18;5.05;;;;;;;19.11;41.71;102267.84;5122437;27;20035;-68
2023/02/20 11:46:39;;;;;;;10.18;5.40;;;;;;;19.13;41.79;102274.72;5123285;27;20089;-64
2023/02/20 11:49:23;;;;;;;8.90;5.38;;;;;;;19.12;42.05;102273.03;5122394;27;20027;-68
2023/02/20 11:51:49;;;;;;;8.27;5.60;;;;;;;19.09;41.96;102260.00;5122242;27;20059;-69